createdAt,value
2022-11-20T00:00:17.243Z,86.36
2022-11-20T00:30:40.301Z,86.57
2022-11-20T01:00:44.129Z,87.02
2022-11-20T01:30:47.232Z,87.38
2022-11-20T02:00:50.525Z,87.49
2022-11-20T02:30:53.523Z,88.44
2022-11-20T03:00:56.611Z,88.42
2022-11-20T03:30:59.619Z,89.12
2022-11-20T04:01:03.006Z,88.83
2022-11-20T04:31:07.152Z,89.12
2022-11-20T05:01:10.049Z,89.06
2022-11-20T05:31:14.071Z,89.13
2022-11-20T06:01:16.879Z,88.55
2022-11-20T06:31:20.603Z,87.98
2022-11-20T07:01:23.666Z,86.83
2022-11-20T07:31:27.494Z,85.51
2022-11-20T08:01:30.839Z,85.29
2022-11-20T08:31:34.603Z,85.18
2022-11-20T09:01:57.933Z,84.71
2022-11-20T09:32:00.939Z,83.10
2022-11-20T10:02:03.865Z,82.40
2022-11-20T10:32:07.668Z,81.05
2022-11-20T11:02:10.479Z,81.54
2022-11-20T11:32:14.684Z,81.44
2022-11-20T12:02:17.947Z,80.75
2022-11-20T12:32:20.975Z,80.78
2022-11-20T13:02:24.515Z,81.91
2022-11-20T13:32:28.538Z,81.96
2022-11-20T14:02:32.100Z,82.21
2022-11-20T14:32:35.223Z,82.24
2022-11-20T15:02:38.396Z,82.96
2022-11-20T15:32:41.390Z,83.11
2022-11-20T16:02:45.288Z,83.12
2022-11-20T16:32:49.429Z,83.86
2022-11-20T17:02:52.841Z,83.71
2022-11-20T17:32:56.431Z,83.46
2022-11-20T18:02:59.422Z,83.60
2022-11-20T18:33:03.069Z,83.97
2022-11-20T19:03:06.091Z,83.89
2022-11-20T19:33:10.299Z,83.58
2022-11-20T20:03:13.319Z,83.37
2022-11-20T20:33:19.630Z,82.90
2022-11-20T21:03:23.833Z,82.43
2022-11-20T21:33:27.012Z,82.50
2022-11-20T22:03:30.280Z,82.64
2022-11-20T22:33:33.425Z,82.51
2022-11-20T23:03:37.140Z,82.51
2022-11-20T23:33:40.597Z,82.63
